LESO/EAS METAR and TAF weather

Enter ICAO airport designator
Station Type Date Time Source
LESO METAR 2021/03/08 16:00 UTC NOAA

LESO 081600Z 35003KT 270V070 9999 FEW036 12/05 Q1019


Station Type Date Time Source
LESO Decoded METAR 2021/03/08 16:00 UTC NOAA

San Sebastian / Fuenterrabia, Spain (LESO) 43-21N 001-48W 8M
Mar 08, 2021 - 11:00 AM EST / 2021.03.08 1600 UTC
Wind: from the N (350 degrees) at 3 MPH (3 KT) (direction variable):0
Visibility: greater than 7 mile(s):0
Sky conditions: mostly clear
Temperature: 53 F (12 C)
Dew Point: 41 F (5 C)
Relative Humidity: 62%
Pressure (altimeter): 30.09 in. Hg (1019 hPa)
ob: LESO 081600Z 35003KT 270V070 9999 FEW036 12/05 Q1019
cycle: 16

Station Type Date Time Source
LESO TAF 2021/03/08 12:27 UTC NOAA

TAF LESO 081100Z 0812/0912 VRB06KT 9999 SCT030 BKN045 TX12/0813Z TN07/0906Z PROB40
TEMPO 0822/0905 RA PROB30
TEMPO 0822/0908 3000 -RADZ BR BKN010

Example: see airport list